CXA126 ZGHA-ZBTJ
Flight info
| Callsign | CXA126 |
|---|---|
| Flight time | N/A |
| Altitude | 37100 |
| Route | GUD9W GUDRO W56 LEBUN/K0850S1160 W56 NUDKU/K0848S1130 W56 GUVRI W85 OMDEK OMDEK3H |
| Aircraft | B738/M-SDE2E3FGHIRWXY/LB1 |
Departure
| Time | 2026-04-24 13:15 |
|---|---|
| Airport | Changsha Huanghua International Airport (ZGHA) |
Arrival
| Time | N/A |
|---|---|
| Airport | Tianjin Binhai International Airport (ZBTJ) |
| Time | Latitude | Longitude | Altitude | Speed | Heading |
|---|---|---|---|---|---|
| 2026-04-24 12:51 | 28.19533 | 113.21573 | 213 ft | 0 kts | 268° |
| 2026-04-24 13:05 | 28.19534 | 113.21596 | 213 ft | 4 kts | 268° |
| 2026-04-24 13:05 | 28.19535 | 113.21622 | 213 ft | 4 kts | 274° |
| 2026-04-24 13:05 | 28.19526 | 113.21645 | 213 ft | 4 kts | 334° |
| 2026-04-24 13:05 | 28.19501 | 113.21652 | 215 ft | 4 kts | 356° |
| 2026-04-24 13:06 | 28.19489 | 113.21653 | 213 ft | 1 kts | 358° |
| 2026-04-24 13:09 | 28.19508 | 113.21652 | 213 ft | 5 kts | 357° |
| 2026-04-24 13:09 | 28.19556 | 113.21649 | 213 ft | 9 kts | 357° |
| 2026-04-24 13:09 | 28.19632 | 113.21645 | 213 ft | 13 kts | 357° |
| 2026-04-24 13:09 | 28.19731 | 113.21640 | 216 ft | 16 kts | 357° |
| 2026-04-24 13:10 | 28.19850 | 113.21633 | 217 ft | 18 kts | 357° |
| 2026-04-24 13:10 | 28.19979 | 113.21626 | 217 ft | 16 kts | 357° |
| 2026-04-24 13:10 | 28.20054 | 113.21658 | 218 ft | 12 kts | 71° |
| 2026-04-24 13:10 | 28.20110 | 113.21715 | 217 ft | 12 kts | 4° |
| 2026-04-24 13:11 | 28.20197 | 113.21711 | 214 ft | 13 kts | 357° |
| 2026-04-24 13:11 | 28.20284 | 113.21705 | 218 ft | 12 kts | 357° |
| 2026-04-24 13:11 | 28.20357 | 113.21700 | 218 ft | 9 kts | 357° |
| 2026-04-24 13:11 | 28.20416 | 113.21697 | 213 ft | 8 kts | 356° |
| 2026-04-24 13:12 | 28.20473 | 113.21693 | 213 ft | 8 kts | 356° |
| 2026-04-24 13:12 | 28.20528 | 113.21689 | 213 ft | 8 kts | 357° |
| 2026-04-24 13:12 | 28.20581 | 113.21691 | 217 ft | 7 kts | 19° |
| 2026-04-24 13:12 | 28.20603 | 113.21735 | 222 ft | 4 kts | 88° |
| 2026-04-24 13:13 | 28.20603 | 113.21744 | 214 ft | 0 kts | 88° |
| 2026-04-24 13:13 | 28.20604 | 113.21748 | 214 ft | 2 kts | 88° |
| 2026-04-24 13:13 | 28.20605 | 113.21786 | 214 ft | 8 kts | 87° |
| 2026-04-24 13:14 | 28.20604 | 113.21845 | 215 ft | 6 kts | 102° |
| 2026-04-24 13:14 | 28.20578 | 113.21874 | 218 ft | 6 kts | 162° |
| 2026-04-24 13:14 | 28.20556 | 113.21876 | 215 ft | 0 kts | 177° |
| 2026-04-24 13:14 | 28.20537 | 113.21878 | 219 ft | 15 kts | 177° |
| 2026-04-24 13:15 | 28.20179 | 113.21899 | 213 ft | 88 kts | 177° |
| 2026-04-24 13:15 | 28.19346 | 113.21950 | 221 ft | 149 kts | 177° |
| 2026-04-24 13:15 | 28.18211 | 113.22004 | 636 ft | 169 kts | 177° |
| 2026-04-24 13:15 | 28.17016 | 113.22076 | 1365 ft | 173 kts | 176° |
| 2026-04-24 13:16 | 28.15816 | 113.22155 | 2161 ft | 175 kts | 177° |
| 2026-04-24 13:16 | 28.14512 | 113.22238 | 2557 ft | 202 kts | 177° |
| 2026-04-24 13:16 | 28.13079 | 113.22329 | 3056 ft | 209 kts | 177° |
| 2026-04-24 13:17 | 28.10628 | 113.22489 | 3893 ft | 217 kts | 176° |
| 2026-04-24 13:17 | 28.06972 | 113.22710 | 5096 ft | 233 kts | 176° |
| 2026-04-24 13:17 | 28.05338 | 113.22812 | 5739 ft | 237 kts | 176° |
| 2026-04-24 13:18 | 28.03679 | 113.22915 | 6382 ft | 242 kts | 176° |
| 2026-04-24 13:18 | 28.03128 | 113.22949 | 6569 ft | 245 kts | 176° |
| 2026-04-24 13:19 | 27.98460 | 113.26472 | 8849 ft | 248 kts | 92° |
| 2026-04-24 13:19 | 27.98414 | 113.28429 | 9476 ft | 250 kts | 86° |
| 2026-04-24 13:19 | 27.98449 | 113.30409 | 10092 ft | 254 kts | 86° |
| 2026-04-24 13:20 | 27.98491 | 113.34252 | 11198 ft | 261 kts | 88° |
| 2026-04-24 13:20 | 27.98495 | 113.34910 | 11388 ft | 263 kts | 88° |
| 2026-04-24 13:21 | 28.01526 | 113.41248 | 12941 ft | 295 kts | 28° |
| 2026-04-24 13:21 | 28.03357 | 113.42473 | 13117 ft | 318 kts | 28° |
| 2026-04-24 13:21 | 28.05332 | 113.43805 | 13287 ft | 341 kts | 28° |
| 2026-04-24 13:21 | 28.07501 | 113.45029 | 13427 ft | 358 kts | 13° |
| 2026-04-24 13:22 | 28.10009 | 113.45394 | 13598 ft | 372 kts | 0° |
| 2026-04-24 13:22 | 28.12656 | 113.45549 | 13878 ft | 386 kts | 0° |
| 2026-04-24 13:23 | 28.20822 | 113.46065 | 15675 ft | 396 kts | 0° |
| 2026-04-24 13:23 | 28.23580 | 113.46262 | 16291 ft | 399 kts | 0° |
| 2026-04-24 13:23 | 28.25421 | 113.46396 | 16681 ft | 401 kts | 0° |